sensor_id;sensor_type;location;lat;lon;timestamp;P1;durP1;ratioP1;P2;durP2;ratioP2
25439;SDS011;13365;52.208;5.488;2023-12-07T00:02:07;15.88;;;9.25;;
25439;SDS011;13365;52.208;5.488;2023-12-07T00:04:32;22.50;;;11.32;;
25439;SDS011;13365;52.208;5.488;2023-12-07T00:06:58;30.27;;;15.90;;
25439;SDS011;13365;52.208;5.488;2023-12-07T00:09:24;31.60;;;14.35;;
25439;SDS011;13365;52.208;5.488;2023-12-07T00:11:49;26.85;;;14.15;;
25439;SDS011;13365;52.208;5.488;2023-12-07T00:14:15;20.00;;;10.48;;
25439;SDS011;13365;52.208;5.488;2023-12-07T00:16:40;19.20;;;9.70;;
25439;SDS011;13365;52.208;5.488;2023-12-07T00:19:06;18.08;;;9.63;;
25439;SDS011;13365;52.208;5.488;2023-12-07T00:21:31;18.52;;;10.57;;
25439;SDS011;13365;52.208;5.488;2023-12-07T00:23:57;19.00;;;9.63;;
25439;SDS011;13365;52.208;5.488;2023-12-07T00:26:22;18.48;;;9.57;;
25439;SDS011;13365;52.208;5.488;2023-12-07T00:28:48;97.30;;;10.50;;
25439;SDS011;13365;52.208;5.488;2023-12-07T00:31:13;16.98;;;9.57;;
25439;SDS011;13365;52.208;5.488;2023-12-07T00:33:39;22.48;;;11.23;;
25439;SDS011;13365;52.208;5.488;2023-12-07T00:36:05;18.67;;;9.80;;
25439;SDS011;13365;52.208;5.488;2023-12-07T00:38:31;21.90;;;9.73;;
25439;SDS011;13365;52.208;5.488;2023-12-07T00:40:57;20.05;;;9.98;;
25439;SDS011;13365;52.208;5.488;2023-12-07T00:43:23;21.00;;;9.77;;
25439;SDS011;13365;52.208;5.488;2023-12-07T00:45:48;18.30;;;9.32;;
25439;SDS011;13365;52.208;5.488;2023-12-07T00:48:14;18.58;;;9.45;;
25439;SDS011;13365;52.208;5.488;2023-12-07T00:50:39;18.60;;;8.68;;
25439;SDS011;13365;52.208;5.488;2023-12-07T00:53:05;22.52;;;10.00;;
25439;SDS011;13365;52.208;5.488;2023-12-07T00:55:30;17.35;;;9.30;;
25439;SDS011;13365;52.208;5.488;2023-12-07T00:57:56;18.92;;;10.40;;
25439;SDS011;13365;52.208;5.488;2023-12-07T01:00:22;17.23;;;9.82;;
25439;SDS011;13365;52.208;5.488;2023-12-07T01:02:47;16.27;;;9.30;;
25439;SDS011;13365;52.208;5.488;2023-12-07T01:05:13;14.55;;;8.23;;
25439;SDS011;13365;52.208;5.488;2023-12-07T01:07:38;18.58;;;8.80;;
25439;SDS011;13365;52.208;5.488;2023-12-07T01:10:04;16.98;;;7.90;;
25439;SDS011;13365;52.208;5.488;2023-12-07T01:12:30;23.65;;;8.68;;
25439;SDS011;13365;52.208;5.488;2023-12-07T01:14:56;18.42;;;8.55;;
25439;SDS011;13365;52.208;5.488;2023-12-07T01:17:22;15.38;;;8.80;;
25439;SDS011;13365;52.208;5.488;2023-12-07T01:19:47;20.55;;;8.05;;
25439;SDS011;13365;52.208;5.488;2023-12-07T01:22:13;18.92;;;8.23;;
25439;SDS011;13365;52.208;5.488;2023-12-07T01:24:39;19.95;;;9.35;;
25439;SDS011;13365;52.208;5.488;2023-12-07T01:27:04;14.77;;;8.20;;
25439;SDS011;13365;52.208;5.488;2023-12-07T01:29:30;17.63;;;8.00;;
25439;SDS011;13365;52.208;5.488;2023-12-07T01:31:55;13.05;;;8.73;;
25439;SDS011;13365;52.208;5.488;2023-12-07T01:34:21;18.50;;;8.73;;
25439;SDS011;13365;52.208;5.488;2023-12-07T01:36:46;15.75;;;7.97;;
25439;SDS011;13365;52.208;5.488;2023-12-07T01:39:12;14.38;;;8.40;;
25439;SDS011;13365;52.208;5.488;2023-12-07T01:41:38;16.52;;;8.82;;
25439;SDS011;13365;52.208;5.488;2023-12-07T01:44:04;18.30;;;7.82;;
25439;SDS011;13365;52.208;5.488;2023-12-07T01:46:30;16.25;;;8.25;;
25439;SDS011;13365;52.208;5.488;2023-12-07T01:48:56;18.35;;;9.13;;
25439;SDS011;13365;52.208;5.488;2023-12-07T01:51:22;15.95;;;8.32;;
25439;SDS011;13365;52.208;5.488;2023-12-07T01:53:47;14.70;;;8.50;;
25439;SDS011;13365;52.208;5.488;2023-12-07T01:56:14;16.63;;;8.57;;
25439;SDS011;13365;52.208;5.488;2023-12-07T01:58:41;13.98;;;8.32;;
25439;SDS011;13365;52.208;5.488;2023-12-07T02:01:06;17.85;;;8.55;;
25439;SDS011;13365;52.208;5.488;2023-12-07T02:03:32;16.13;;;8.82;;
25439;SDS011;13365;52.208;5.488;2023-12-07T02:05:58;17.58;;;8.70;;
25439;SDS011;13365;52.208;5.488;2023-12-07T02:08:25;15.55;;;7.65;;
25439;SDS011;13365;52.208;5.488;2023-12-07T02:10:50;16.58;;;8.40;;
25439;SDS011;13365;52.208;5.488;2023-12-07T02:13:17;16.33;;;7.93;;
25439;SDS011;13365;52.208;5.488;2023-12-07T02:15:44;12.52;;;7.68;;
25439;SDS011;13365;52.208;5.488;2023-12-07T02:18:19;17.90;;;8.07;;
25439;SDS011;13365;52.208;5.488;2023-12-07T02:23:29;15.57;;;7.45;;
25439;SDS011;13365;52.208;5.488;2023-12-07T02:25:57;13.13;;;6.80;;
25439;SDS011;13365;52.208;5.488;2023-12-07T02:28:28;12.05;;;6.95;;
25439;SDS011;13365;52.208;5.488;2023-12-07T02:30:54;14.82;;;7.25;;
25439;SDS011;13365;52.208;5.488;2023-12-07T02:33:20;14.48;;;7.30;;
25439;SDS011;13365;52.208;5.488;2023-12-07T02:35:46;15.00;;;7.30;;
25439;SDS011;13365;52.208;5.488;2023-12-07T02:38:11;12.32;;;7.28;;
25439;SDS011;13365;52.208;5.488;2023-12-07T02:40:37;12.63;;;6.93;;
25439;SDS011;13365;52.208;5.488;2023-12-07T02:43:05;11.77;;;7.03;;
25439;SDS011;13365;52.208;5.488;2023-12-07T02:45:32;15.95;;;7.70;;
25439;SDS011;13365;52.208;5.488;2023-12-07T02:47:59;17.20;;;7.75;;
25439;SDS011;13365;52.208;5.488;2023-12-07T02:50:24;11.30;;;7.03;;
25439;SDS011;13365;52.208;5.488;2023-12-07T02:52:50;12.10;;;7.25;;
25439;SDS011;13365;52.208;5.488;2023-12-07T02:55:16;14.70;;;7.88;;
25439;SDS011;13365;52.208;5.488;2023-12-07T02:57:41;14.82;;;8.00;;
25439;SDS011;13365;52.208;5.488;2023-12-07T03:00:07;15.55;;;7.53;;
25439;SDS011;13365;52.208;5.488;2023-12-07T03:02:34;12.93;;;6.82;;
25439;SDS011;13365;52.208;5.488;2023-12-07T03:05:00;18.02;;;7.38;;
25439;SDS011;13365;52.208;5.488;2023-12-07T03:07:26;14.75;;;7.43;;
25439;SDS011;13365;52.208;5.488;2023-12-07T03:09:51;13.65;;;7.30;;
25439;SDS011;13365;52.208;5.488;2023-12-07T03:12:17;12.60;;;6.90;;
25439;SDS011;13365;52.208;5.488;2023-12-07T03:14:42;17.05;;;7.35;;
25439;SDS011;13365;52.208;5.488;2023-12-07T03:17:08;12.90;;;6.75;;
25439;SDS011;13365;52.208;5.488;2023-12-07T03:19:37;12.60;;;7.85;;
25439;SDS011;13365;52.208;5.488;2023-12-07T03:22:03;15.23;;;7.18;;
25439;SDS011;13365;52.208;5.488;2023-12-07T03:24:29;11.65;;;6.45;;
25439;SDS011;13365;52.208;5.488;2023-12-07T03:26:54;16.50;;;8.20;;
25439;SDS011;13365;52.208;5.488;2023-12-07T03:29:20;13.32;;;7.53;;
25439;SDS011;13365;52.208;5.488;2023-12-07T03:31:46;13.93;;;7.30;;
25439;SDS011;13365;52.208;5.488;2023-12-07T03:34:11;15.15;;;8.00;;
25439;SDS011;13365;52.208;5.488;2023-12-07T03:36:40;13.85;;;8.20;;
25439;SDS011;13365;52.208;5.488;2023-12-07T03:39:07;21.05;;;8.00;;
25439;SDS011;13365;52.208;5.488;2023-12-07T03:41:32;16.40;;;7.55;;
25439;SDS011;13365;52.208;5.488;2023-12-07T03:43:58;16.45;;;7.95;;
25439;SDS011;13365;52.208;5.488;2023-12-07T03:46:24;15.88;;;7.00;;
25439;SDS011;13365;52.208;5.488;2023-12-07T03:48:49;13.73;;;7.53;;
25439;SDS011;13365;52.208;5.488;2023-12-07T03:51:15;14.90;;;6.88;;
25439;SDS011;13365;52.208;5.488;2023-12-07T03:53:42;15.45;;;7.57;;
25439;SDS011;13365;52.208;5.488;2023-12-07T03:56:08;13.45;;;7.57;;
25439;SDS011;13365;52.208;5.488;2023-12-07T03:58:34;16.25;;;8.15;;
25439;SDS011;13365;52.208;5.488;2023-12-07T04:00:59;16.67;;;8.55;;
25439;SDS011;13365;52.208;5.488;2023-12-07T04:03:25;14.38;;;7.75;;
25439;SDS011;13365;52.208;5.488;2023-12-07T04:05:50;16.25;;;7.88;;
25439;SDS011;13365;52.208;5.488;2023-12-07T04:08:16;20.88;;;8.25;;
25439;SDS011;13365;52.208;5.488;2023-12-07T04:10:42;15.82;;;8.80;;
25439;SDS011;13365;52.208;5.488;2023-12-07T04:13:08;18.83;;;8.95;;
25439;SDS011;13365;52.208;5.488;2023-12-07T04:15:33;17.05;;;8.57;;
25439;SDS011;13365;52.208;5.488;2023-12-07T04:17:59;18.42;;;8.07;;
25439;SDS011;13365;52.208;5.488;2023-12-07T04:20:24;15.43;;;8.27;;
25439;SDS011;13365;52.208;5.488;2023-12-07T04:22:50;16.50;;;8.88;;
25439;SDS011;13365;52.208;5.488;2023-12-07T04:25:16;19.08;;;9.32;;
25439;SDS011;13365;52.208;5.488;2023-12-07T04:27:41;15.02;;;8.85;;
25439;SDS011;13365;52.208;5.488;2023-12-07T04:30:07;17.58;;;9.60;;
25439;SDS011;13365;52.208;5.488;2023-12-07T04:32:33;23.45;;;9.82;;
25439;SDS011;13365;52.208;5.488;2023-12-07T04:34:58;22.27;;;9.68;;
25439;SDS011;13365;52.208;5.488;2023-12-07T04:37:24;14.52;;;9.05;;
25439;SDS011;13365;52.208;5.488;2023-12-07T04:39:49;22.35;;;9.40;;
25439;SDS011;13365;52.208;5.488;2023-12-07T04:42:15;18.70;;;10.18;;
25439;SDS011;13365;52.208;5.488;2023-12-07T04:44:40;20.13;;;9.65;;
25439;SDS011;13365;52.208;5.488;2023-12-07T04:47:06;25.60;;;9.38;;
25439;SDS011;13365;52.208;5.488;2023-12-07T04:49:32;19.25;;;10.15;;
25439;SDS011;13365;52.208;5.488;2023-12-07T04:51:57;20.40;;;10.25;;
25439;SDS011;13365;52.208;5.488;2023-12-07T04:54:23;20.92;;;9.88;;
25439;SDS011;13365;52.208;5.488;2023-12-07T04:56:48;27.00;;;9.65;;
25439;SDS011;13365;52.208;5.488;2023-12-07T04:59:14;20.63;;;9.68;;
25439;SDS011;13365;52.208;5.488;2023-12-07T05:01:39;22.58;;;10.63;;
25439;SDS011;13365;52.208;5.488;2023-12-07T05:04:05;25.83;;;10.05;;
25439;SDS011;13365;52.208;5.488;2023-12-07T05:06:31;27.90;;;11.45;;
25439;SDS011;13365;52.208;5.488;2023-12-07T05:08:57;35.83;;;11.07;;
25439;SDS011;13365;52.208;5.488;2023-12-07T05:11:23;75.47;;;12.70;;
25439;SDS011;13365;52.208;5.488;2023-12-07T05:13:48;91.35;;;12.85;;
25439;SDS011;13365;52.208;5.488;2023-12-07T05:16:14;63.28;;;11.15;;
25439;SDS011;13365;52.208;5.488;2023-12-07T05:18:40;59.50;;;11.30;;
25439;SDS011;13365;52.208;5.488;2023-12-07T05:21:06;55.38;;;11.55;;
25439;SDS011;13365;52.208;5.488;2023-12-07T05:23:32;83.07;;;11.88;;
25439;SDS011;13365;52.208;5.488;2023-12-07T05:25:58;33.00;;;10.02;;
25439;SDS011;13365;52.208;5.488;2023-12-07T05:28:24;45.72;;;10.35;;
25439;SDS011;13365;52.208;5.488;2023-12-07T05:30:50;49.10;;;10.75;;
25439;SDS011;13365;52.208;5.488;2023-12-07T05:33:17;42.25;;;10.30;;
25439;SDS011;13365;52.208;5.488;2023-12-07T05:35:44;53.38;;;10.48;;
25439;SDS011;13365;52.208;5.488;2023-12-07T05:38:10;41.05;;;9.73;;
25439;SDS011;13365;52.208;5.488;2023-12-07T05:40:35;37.15;;;9.50;;
25439;SDS011;13365;52.208;5.488;2023-12-07T05:43:01;37.28;;;9.35;;
25439;SDS011;13365;52.208;5.488;2023-12-07T05:45:26;41.85;;;9.85;;
25439;SDS011;13365;52.208;5.488;2023-12-07T05:47:52;47.38;;;10.07;;
25439;SDS011;13365;52.208;5.488;2023-12-07T05:50:17;80.60;;;10.40;;
25439;SDS011;13365;52.208;5.488;2023-12-07T05:52:43;88.22;;;10.73;;
25439;SDS011;13365;52.208;5.488;2023-12-07T05:55:09;66.40;;;10.65;;
25439;SDS011;13365;52.208;5.488;2023-12-07T05:57:34;67.35;;;11.13;;
25439;SDS011;13365;52.208;5.488;2023-12-07T06:00:00;56.33;;;11.13;;
25439;SDS011;13365;52.208;5.488;2023-12-07T06:02:26;47.10;;;11.10;;
25439;SDS011;13365;52.208;5.488;2023-12-07T06:04:52;55.40;;;10.40;;
25439;SDS011;13365;52.208;5.488;2023-12-07T06:07:18;52.47;;;10.35;;
25439;SDS011;13365;52.208;5.488;2023-12-07T06:09:43;58.20;;;10.88;;
25439;SDS011;13365;52.208;5.488;2023-12-07T06:12:09;45.08;;;10.50;;
25439;SDS011;13365;52.208;5.488;2023-12-07T06:14:34;59.92;;;11.18;;
25439;SDS011;13365;52.208;5.488;2023-12-07T06:17:00;66.28;;;10.82;;
25439;SDS011;13365;52.208;5.488;2023-12-07T06:19:26;49.45;;;10.25;;
25439;SDS011;13365;52.208;5.488;2023-12-07T06:21:51;51.97;;;10.63;;
25439;SDS011;13365;52.208;5.488;2023-12-07T06:24:17;81.55;;;11.73;;
25439;SDS011;13365;52.208;5.488;2023-12-07T06:26:42;82.05;;;11.45;;
25439;SDS011;13365;52.208;5.488;2023-12-07T06:29:08;62.92;;;11.75;;
25439;SDS011;13365;52.208;5.488;2023-12-07T06:31:34;45.80;;;10.43;;
25439;SDS011;13365;52.208;5.488;2023-12-07T06:33:59;47.00;;;10.77;;
25439;SDS011;13365;52.208;5.488;2023-12-07T06:36:25;40.75;;;11.00;;
25439;SDS011;13365;52.208;5.488;2023-12-07T06:38:52;54.42;;;10.48;;
25439;SDS011;13365;52.208;5.488;2023-12-07T06:41:18;47.90;;;12.13;;
25439;SDS011;13365;52.208;5.488;2023-12-07T06:43:43;51.65;;;11.35;;
25439;SDS011;13365;52.208;5.488;2023-12-07T06:46:12;99.30;;;12.93;;
25439;SDS011;13365;52.208;5.488;2023-12-07T06:48:39;70.28;;;12.65;;
25439;SDS011;13365;52.208;5.488;2023-12-07T06:51:05;61.30;;;12.43;;
25439;SDS011;13365;52.208;5.488;2023-12-07T06:53:31;95.72;;;13.23;;
25439;SDS011;13365;52.208;5.488;2023-12-07T06:55:56;73.78;;;12.18;;
25439;SDS011;13365;52.208;5.488;2023-12-07T06:58:22;67.88;;;12.27;;
25439;SDS011;13365;52.208;5.488;2023-12-07T07:00:50;94.68;;;12.55;;
25439;SDS011;13365;52.208;5.488;2023-12-07T07:03:16;79.18;;;13.30;;
25439;SDS011;13365;52.208;5.488;2023-12-07T07:05:42;62.78;;;12.63;;
25439;SDS011;13365;52.208;5.488;2023-12-07T07:08:08;86.93;;;13.90;;
25439;SDS011;13365;52.208;5.488;2023-12-07T07:10:33;77.63;;;12.25;;
25439;SDS011;13365;52.208;5.488;2023-12-07T07:13:02;72.82;;;11.85;;
25439;SDS011;13365;52.208;5.488;2023-12-07T07:15:30;96.32;;;12.60;;
25439;SDS011;13365;52.208;5.488;2023-12-07T07:17:56;62.47;;;12.02;;
25439;SDS011;13365;52.208;5.488;2023-12-07T07:20:21;73.68;;;13.30;;
25439;SDS011;13365;52.208;5.488;2023-12-07T07:22:47;92.05;;;14.73;;
25439;SDS011;13365;52.208;5.488;2023-12-07T07:25:13;100.30;;;14.13;;
25439;SDS011;13365;52.208;5.488;2023-12-07T07:27:41;95.40;;;14.13;;
25439;SDS011;13365;52.208;5.488;2023-12-07T07:30:07;62.47;;;12.80;;
25439;SDS011;13365;52.208;5.488;2023-12-07T07:32:33;107.35;;;13.45;;
25439;SDS011;13365;52.208;5.488;2023-12-07T07:35:01;99.70;;;13.38;;
25439;SDS011;13365;52.208;5.488;2023-12-07T07:37:26;92.65;;;14.45;;
25439;SDS011;13365;52.208;5.488;2023-12-07T07:39:52;106.57;;;13.75;;
25439;SDS011;13365;52.208;5.488;2023-12-07T07:42:18;111.20;;;14.07;;
25439;SDS011;13365;52.208;5.488;2023-12-07T07:44:43;94.03;;;13.27;;
25439;SDS011;13365;52.208;5.488;2023-12-07T07:47:09;100.85;;;13.60;;
25439;SDS011;13365;52.208;5.488;2023-12-07T07:49:34;102.28;;;13.48;;
25439;SDS011;13365;52.208;5.488;2023-12-07T07:52:00;100.25;;;14.52;;
25439;SDS011;13365;52.208;5.488;2023-12-07T07:54:26;176.45;;;16.58;;
25439;SDS011;13365;52.208;5.488;2023-12-07T07:56:52;117.97;;;14.10;;
25439;SDS011;13365;52.208;5.488;2023-12-07T07:59:18;66.13;;;12.02;;
25439;SDS011;13365;52.208;5.488;2023-12-07T08:01:45;97.57;;;13.18;;
25439;SDS011;13365;52.208;5.488;2023-12-07T08:04:12;81.45;;;13.30;;
25439;SDS011;13365;52.208;5.488;2023-12-07T08:06:37;77.40;;;12.57;;
25439;SDS011;13365;52.208;5.488;2023-12-07T08:09:03;56.65;;;12.50;;
25439;SDS011;13365;52.208;5.488;2023-12-07T08:11:29;67.05;;;12.52;;
25439;SDS011;13365;52.208;5.488;2023-12-07T08:13:54;105.63;;;14.85;;
25439;SDS011;13365;52.208;5.488;2023-12-07T08:16:20;92.05;;;14.38;;
25439;SDS011;13365;52.208;5.488;2023-12-07T08:18:46;50.90;;;13.32;;
25439;SDS011;13365;52.208;5.488;2023-12-07T08:21:22;76.75;;;13.60;;
25439;SDS011;13365;52.208;5.488;2023-12-07T08:23:50;69.05;;;13.52;;
25439;SDS011;13365;52.208;5.488;2023-12-07T08:26:16;73.28;;;14.18;;
25439;SDS011;13365;52.208;5.488;2023-12-07T08:28:42;73.90;;;15.00;;
25439;SDS011;13365;52.208;5.488;2023-12-07T08:31:08;61.70;;;13.77;;
25439;SDS011;13365;52.208;5.488;2023-12-07T08:33:34;70.50;;;14.23;;
25439;SDS011;13365;52.208;5.488;2023-12-07T08:36:00;72.57;;;13.88;;
25439;SDS011;13365;52.208;5.488;2023-12-07T08:38:26;44.90;;;13.02;;
25439;SDS011;13365;52.208;5.488;2023-12-07T08:40:51;47.47;;;13.00;;
25439;SDS011;13365;52.208;5.488;2023-12-07T08:43:20;56.92;;;14.23;;
25439;SDS011;13365;52.208;5.488;2023-12-07T08:45:50;43.05;;;13.25;;
25439;SDS011;13365;52.208;5.488;2023-12-07T08:48:16;50.08;;;12.30;;
25439;SDS011;13365;52.208;5.488;2023-12-07T08:50:42;101.07;;;14.18;;
25439;SDS011;13365;52.208;5.488;2023-12-07T08:53:08;59.92;;;13.60;;
25439;SDS011;13365;52.208;5.488;2023-12-07T08:55:34;63.42;;;13.35;;
25439;SDS011;13365;52.208;5.488;2023-12-07T08:57:59;75.13;;;13.15;;
25439;SDS011;13365;52.208;5.488;2023-12-07T09:00:25;71.18;;;13.48;;
25439;SDS011;13365;52.208;5.488;2023-12-07T09:02:51;65.90;;;13.07;;
25439;SDS011;13365;52.208;5.488;2023-12-07T09:05:17;53.97;;;12.35;;
25439;SDS011;13365;52.208;5.488;2023-12-07T09:07:44;53.45;;;12.32;;
25439;SDS011;13365;52.208;5.488;2023-12-07T09:10:10;60.20;;;12.68;;
25439;SDS011;13365;52.208;5.488;2023-12-07T09:12:36;49.47;;;12.57;;
25439;SDS011;13365;52.208;5.488;2023-12-07T09:15:02;61.55;;;13.82;;
25439;SDS011;13365;52.208;5.488;2023-12-07T09:17:28;56.78;;;13.50;;
25439;SDS011;13365;52.208;5.488;2023-12-07T09:19:54;95.13;;;15.27;;
25439;SDS011;13365;52.208;5.488;2023-12-07T09:22:20;105.90;;;15.45;;
25439;SDS011;13365;52.208;5.488;2023-12-07T09:24:46;72.82;;;14.73;;
25439;SDS011;13365;52.208;5.488;2023-12-07T09:27:13;48.67;;;14.70;;
25439;SDS011;13365;52.208;5.488;2023-12-07T09:29:38;48.60;;;14.52;;
25439;SDS011;13365;52.208;5.488;2023-12-07T09:32:04;60.22;;;14.65;;
25439;SDS011;13365;52.208;5.488;2023-12-07T09:34:31;53.95;;;14.50;;
25439;SDS011;13365;52.208;5.488;2023-12-07T09:37:09;56.95;;;15.25;;
25439;SDS011;13365;52.208;5.488;2023-12-07T09:39:34;79.40;;;16.40;;
25439;SDS011;13365;52.208;5.488;2023-12-07T09:42:01;60.20;;;14.50;;
25439;SDS011;13365;52.208;5.488;2023-12-07T09:44:27;102.53;;;16.60;;
25439;SDS011;13365;52.208;5.488;2023-12-07T09:46:53;59.95;;;15.10;;
25439;SDS011;13365;52.208;5.488;2023-12-07T09:49:19;69.75;;;15.70;;
25439;SDS011;13365;52.208;5.488;2023-12-07T09:51:46;65.80;;;14.63;;
25439;SDS011;13365;52.208;5.488;2023-12-07T09:54:12;67.68;;;13.82;;
25439;SDS011;13365;52.208;5.488;2023-12-07T09:56:38;70.40;;;13.18;;
25439;SDS011;13365;52.208;5.488;2023-12-07T09:59:04;54.38;;;13.27;;
25439;SDS011;13365;52.208;5.488;2023-12-07T10:01:32;47.17;;;11.95;;
25439;SDS011;13365;52.208;5.488;2023-12-07T10:06:45;33.30;;;12.13;;
25439;SDS011;13365;52.208;5.488;2023-12-07T10:09:11;57.85;;;12.68;;
25439;SDS011;13365;52.208;5.488;2023-12-07T10:11:37;41.42;;;13.55;;
25439;SDS011;13365;52.208;5.488;2023-12-07T10:14:04;39.80;;;12.35;;
25439;SDS011;13365;52.208;5.488;2023-12-07T10:16:32;38.72;;;13.05;;
25439;SDS011;13365;52.208;5.488;2023-12-07T10:19:12;60.38;;;13.50;;
25439;SDS011;13365;52.208;5.488;2023-12-07T10:21:44;52.35;;;13.80;;
25439;SDS011;13365;52.208;5.488;2023-12-07T10:24:10;56.80;;;12.30;;
25439;SDS011;13365;52.208;5.488;2023-12-07T10:26:36;41.70;;;12.32;;
25439;SDS011;13365;52.208;5.488;2023-12-07T10:29:07;47.30;;;11.50;;
25439;SDS011;13365;52.208;5.488;2023-12-07T10:31:33;38.22;;;11.57;;
25439;SDS011;13365;52.208;5.488;2023-12-07T10:33:59;46.22;;;12.02;;
25439;SDS011;13365;52.208;5.488;2023-12-07T10:36:25;43.75;;;9.82;;
25439;SDS011;13365;52.208;5.488;2023-12-07T10:38:51;62.80;;;10.75;;
25439;SDS011;13365;52.208;5.488;2023-12-07T10:41:18;28.48;;;10.30;;
25439;SDS011;13365;52.208;5.488;2023-12-07T10:43:49;36.28;;;10.43;;
25439;SDS011;13365;52.208;5.488;2023-12-07T10:46:19;31.10;;;10.13;;
25439;SDS011;13365;52.208;5.488;2023-12-07T10:48:47;30.90;;;10.40;;
25439;SDS011;13365;52.208;5.488;2023-12-07T10:51:48;25.38;;;10.27;;
25439;SDS011;13365;52.208;5.488;2023-12-07T10:54:07;25.95;;;10.02;;
25439;SDS011;13365;52.208;5.488;2023-12-07T10:56:43;30.08;;;10.30;;
25439;SDS011;13365;52.208;5.488;2023-12-07T10:59:14;25.67;;;9.05;;
25439;SDS011;13365;52.208;5.488;2023-12-07T11:01:54;28.95;;;8.85;;
25439;SDS011;13365;52.208;5.488;2023-12-07T11:04:22;24.92;;;8.57;;
25439;SDS011;13365;52.208;5.488;2023-12-07T11:06:48;27.08;;;9.30;;
25439;SDS011;13365;52.208;5.488;2023-12-07T11:09:19;26.92;;;8.73;;
25439;SDS011;13365;52.208;5.488;2023-12-07T11:11:55;27.85;;;8.75;;
25439;SDS011;13365;52.208;5.488;2023-12-07T11:14:27;20.88;;;9.18;;
25439;SDS011;13365;52.208;5.488;2023-12-07T11:16:53;25.80;;;9.85;;
25439;SDS011;13365;52.208;5.488;2023-12-07T11:22:09;23.45;;;9.68;;
25439;SDS011;13365;52.208;5.488;2023-12-07T11:24:36;17.63;;;8.50;;
25439;SDS011;13365;52.208;5.488;2023-12-07T11:27:02;18.27;;;8.68;;
25439;SDS011;13365;52.208;5.488;2023-12-07T11:29:28;17.10;;;7.90;;
25439;SDS011;13365;52.208;5.488;2023-12-07T11:31:55;21.38;;;8.50;;
25439;SDS011;13365;52.208;5.488;2023-12-07T11:34:38;21.13;;;8.15;;
25439;SDS011;13365;52.208;5.488;2023-12-07T11:37:08;22.67;;;8.35;;
25439;SDS011;13365;52.208;5.488;2023-12-07T11:39:35;23.92;;;9.02;;
25439;SDS011;13365;52.208;5.488;2023-12-07T11:42:09;20.00;;;9.05;;
25439;SDS011;13365;52.208;5.488;2023-12-07T11:44:37;21.30;;;8.40;;
25439;SDS011;13365;52.208;5.488;2023-12-07T11:47:03;25.85;;;8.82;;
25439;SDS011;13365;52.208;5.488;2023-12-07T11:49:30;21.02;;;8.68;;
25439;SDS011;13365;52.208;5.488;2023-12-07T11:51:57;25.00;;;9.10;;
25439;SDS011;13365;52.208;5.488;2023-12-07T11:54:23;26.30;;;9.85;;
25439;SDS011;13365;52.208;5.488;2023-12-07T11:56:53;22.65;;;10.20;;
25439;SDS011;13365;52.208;5.488;2023-12-07T11:59:19;23.02;;;10.18;;
25439;SDS011;13365;52.208;5.488;2023-12-07T12:01:48;31.95;;;9.65;;
25439;SDS011;13365;52.208;5.488;2023-12-07T12:04:17;28.98;;;10.07;;
25439;SDS011;13365;52.208;5.488;2023-12-07T12:06:43;29.10;;;11.43;;
25439;SDS011;13365;52.208;5.488;2023-12-07T12:09:12;30.67;;;11.07;;
25439;SDS011;13365;52.208;5.488;2023-12-07T12:14:14;27.92;;;10.73;;
25439;SDS011;13365;52.208;5.488;2023-12-07T12:16:43;29.77;;;11.40;;
25439;SDS011;13365;52.208;5.488;2023-12-07T12:19:10;27.45;;;10.75;;
25439;SDS011;13365;52.208;5.488;2023-12-07T12:21:36;32.58;;;11.82;;
25439;SDS011;13365;52.208;5.488;2023-12-07T12:24:05;28.40;;;11.57;;
25439;SDS011;13365;52.208;5.488;2023-12-07T12:26:37;26.90;;;12.05;;
25439;SDS011;13365;52.208;5.488;2023-12-07T12:29:05;25.65;;;11.90;;
25439;SDS011;13365;52.208;5.488;2023-12-07T12:31:32;30.42;;;11.63;;
25439;SDS011;13365;52.208;5.488;2023-12-07T12:33:57;27.38;;;12.32;;
25439;SDS011;13365;52.208;5.488;2023-12-07T12:36:26;26.80;;;12.07;;
25439;SDS011;13365;52.208;5.488;2023-12-07T12:38:53;37.63;;;13.38;;
25439;SDS011;13365;52.208;5.488;2023-12-07T12:41:20;28.05;;;13.00;;
25439;SDS011;13365;52.208;5.488;2023-12-07T12:43:47;34.83;;;13.07;;
25439;SDS011;13365;52.208;5.488;2023-12-07T12:46:13;32.97;;;13.07;;
25439;SDS011;13365;52.208;5.488;2023-12-07T12:48:52;31.80;;;13.90;;
25439;SDS011;13365;52.208;5.488;2023-12-07T12:53:49;32.28;;;13.40;;
25439;SDS011;13365;52.208;5.488;2023-12-07T12:56:16;31.23;;;13.68;;
25439;SDS011;13365;52.208;5.488;2023-12-07T12:58:43;32.10;;;13.35;;
25439;SDS011;13365;52.208;5.488;2023-12-07T13:01:08;34.33;;;14.93;;
25439;SDS011;13365;52.208;5.488;2023-12-07T13:03:34;28.25;;;12.93;;
25439;SDS011;13365;52.208;5.488;2023-12-07T13:06:00;29.83;;;13.20;;
25439;SDS011;13365;52.208;5.488;2023-12-07T13:08:26;30.98;;;14.07;;
25439;SDS011;13365;52.208;5.488;2023-12-07T13:10:53;31.85;;;14.63;;
25439;SDS011;13365;52.208;5.488;2023-12-07T13:13:18;36.83;;;14.60;;
25439;SDS011;13365;52.208;5.488;2023-12-07T13:15:44;32.10;;;14.07;;
25439;SDS011;13365;52.208;5.488;2023-12-07T13:18:09;33.72;;;13.95;;
25439;SDS011;13365;52.208;5.488;2023-12-07T13:20:35;30.70;;;14.65;;
25439;SDS011;13365;52.208;5.488;2023-12-07T13:23:00;32.63;;;14.18;;
25439;SDS011;13365;52.208;5.488;2023-12-07T13:25:26;25.40;;;12.40;;
25439;SDS011;13365;52.208;5.488;2023-12-07T13:27:52;32.53;;;14.48;;
25439;SDS011;13365;52.208;5.488;2023-12-07T13:30:17;33.70;;;13.52;;
25439;SDS011;13365;52.208;5.488;2023-12-07T13:32:43;32.60;;;14.20;;
25439;SDS011;13365;52.208;5.488;2023-12-07T13:35:09;36.92;;;15.10;;
25439;SDS011;13365;52.208;5.488;2023-12-07T13:37:35;30.63;;;13.85;;
25439;SDS011;13365;52.208;5.488;2023-12-07T13:40:01;34.17;;;14.07;;
25439;SDS011;13365;52.208;5.488;2023-12-07T13:42:29;38.28;;;15.15;;
25439;SDS011;13365;52.208;5.488;2023-12-07T13:44:56;34.55;;;16.30;;
25439;SDS011;13365;52.208;5.488;2023-12-07T13:47:24;33.30;;;15.80;;
25439;SDS011;13365;52.208;5.488;2023-12-07T13:50:01;37.53;;;16.23;;
25439;SDS011;13365;52.208;5.488;2023-12-07T13:52:28;33.63;;;14.88;;
25439;SDS011;13365;52.208;5.488;2023-12-07T13:54:54;35.45;;;15.77;;
25439;SDS011;13365;52.208;5.488;2023-12-07T13:57:21;34.22;;;15.40;;
25439;SDS011;13365;52.208;5.488;2023-12-07T13:59:50;36.38;;;15.73;;
25439;SDS011;13365;52.208;5.488;2023-12-07T14:02:16;34.28;;;14.48;;
25439;SDS011;13365;52.208;5.488;2023-12-07T14:04:42;35.10;;;15.73;;
25439;SDS011;13365;52.208;5.488;2023-12-07T14:07:09;33.00;;;15.05;;
25439;SDS011;13365;52.208;5.488;2023-12-07T14:09:36;34.80;;;15.25;;
25439;SDS011;13365;52.208;5.488;2023-12-07T14:12:03;36.05;;;15.98;;
25439;SDS011;13365;52.208;5.488;2023-12-07T14:14:31;41.85;;;15.48;;
25439;SDS011;13365;52.208;5.488;2023-12-07T14:16:57;34.80;;;15.32;;
25439;SDS011;13365;52.208;5.488;2023-12-07T14:19:26;33.40;;;15.23;;
25439;SDS011;13365;52.208;5.488;2023-12-07T14:21:53;35.35;;;16.60;;
25439;SDS011;13365;52.208;5.488;2023-12-07T14:24:20;36.67;;;16.33;;
25439;SDS011;13365;52.208;5.488;2023-12-07T14:26:46;32.67;;;15.02;;
25439;SDS011;13365;52.208;5.488;2023-12-07T14:29:11;38.92;;;15.68;;
25439;SDS011;13365;52.208;5.488;2023-12-07T14:31:42;37.92;;;15.93;;
25439;SDS011;13365;52.208;5.488;2023-12-07T14:34:08;34.33;;;16.08;;
25439;SDS011;13365;52.208;5.488;2023-12-07T14:36:33;41.17;;;15.70;;